createdAt,value
2018-08-28T00:01:53.940Z,61.20
2018-08-28T00:04:22.232Z,61.40
2018-08-28T00:06:50.453Z,61.50
2018-08-28T00:09:18.741Z,61.60
2018-08-28T00:11:47.334Z,61.80
2018-08-28T00:14:15.578Z,62.00
2018-08-28T00:16:43.966Z,62.20
2018-08-28T00:19:12.237Z,62.30
2018-08-28T00:21:40.582Z,62.40
2018-08-28T00:24:08.834Z,62.40
2018-08-28T00:26:37.037Z,62.60
2018-08-28T00:29:05.330Z,62.90
2018-08-28T00:31:33.610Z,63.10
2018-08-28T00:34:02.278Z,63.30
2018-08-28T00:36:30.514Z,63.30
2018-08-28T00:38:58.835Z,63.30
2018-08-28T00:41:27.162Z,63.30
2018-08-28T00:43:55.424Z,63.40
2018-08-28T00:46:23.712Z,63.60
2018-08-28T00:48:51.954Z,63.70
2018-08-28T00:51:20.295Z,63.80
2018-08-28T00:53:48.569Z,64.00
2018-08-28T00:56:16.790Z,64.00
2018-08-28T00:58:45.071Z,64.20
2018-08-28T01:01:13.310Z,64.30
2018-08-28T01:03:41.588Z,64.50
2018-08-28T01:06:09.932Z,64.90
2018-08-28T01:08:38.246Z,65.20
2018-08-28T01:11:07.406Z,65.40
2018-08-28T01:13:35.635Z,65.70
2018-08-28T01:16:03.861Z,65.90
2018-08-28T01:18:32.122Z,66.20
2018-08-28T01:21:00.353Z,66.40
2018-08-28T01:23:28.557Z,66.50
2018-08-28T01:25:56.787Z,66.70
2018-08-28T01:28:25.011Z,67.00
2018-08-28T01:30:53.262Z,67.00
2018-08-28T01:33:21.561Z,67.10
2018-08-28T01:35:49.809Z,67.30
2018-08-28T01:38:17.994Z,67.80
2018-08-28T01:40:46.243Z,68.20
2018-08-28T01:43:19.837Z,68.40
2018-08-28T01:45:48.077Z,68.40
2018-08-28T01:48:16.293Z,68.50
2018-08-28T01:50:44.496Z,68.70
2018-08-28T01:53:12.749Z,69.00
2018-08-28T01:55:41.130Z,69.10
2018-08-28T01:58:09.353Z,69.30
2018-08-28T02:00:37.632Z,69.50
2018-08-28T02:03:05.924Z,69.70
2018-08-28T02:05:34.189Z,69.90
2018-08-28T02:08:02.405Z,70.00
2018-08-28T02:10:30.638Z,70.20
2018-08-28T02:12:58.855Z,70.10
2018-08-28T02:15:27.065Z,70.30
2018-08-28T02:17:55.296Z,70.60
2018-08-28T02:20:23.566Z,70.90
2018-08-28T02:22:51.817Z,70.90
2018-08-28T02:25:20.016Z,71.00
2018-08-28T02:27:48.247Z,71.50
2018-08-28T02:30:16.467Z,71.70
2018-08-28T02:32:44.684Z,71.80
2018-08-28T02:35:12.914Z,71.80
2018-08-28T02:37:41.126Z,71.90
2018-08-28T02:40:09.386Z,71.90
2018-08-28T02:42:37.575Z,71.90
2018-08-28T02:45:07.049Z,71.70
2018-08-28T02:47:35.278Z,71.80
2018-08-28T02:50:03.542Z,71.90
2018-08-28T02:52:31.772Z,71.80
2018-08-28T02:54:59.982Z,72.00
2018-08-28T02:57:28.205Z,72.20
2018-08-28T02:59:56.425Z,73.10
2018-08-28T03:02:24.655Z,72.30
2018-08-28T03:04:52.878Z,72.40
2018-08-28T03:07:21.120Z,72.70
2018-08-28T03:09:49.313Z,73.00
2018-08-28T03:12:17.530Z,73.10
2018-08-28T03:14:45.801Z,73.10
2018-08-28T03:17:14.025Z,73.00
2018-08-28T03:19:42.283Z,73.30
2018-08-28T03:22:10.609Z,73.30
2018-08-28T03:24:38.826Z,73.40
2018-08-28T03:27:07.227Z,73.50
2018-08-28T03:29:35.443Z,73.50
2018-08-28T03:32:03.738Z,73.70
2018-08-28T03:34:32.014Z,73.70
2018-08-28T03:37:00.243Z,74.00
2018-08-28T03:39:28.502Z,74.00
2018-08-28T03:41:56.742Z,74.00
2018-08-28T03:44:24.951Z,74.20
2018-08-28T03:46:54.252Z,74.40
2018-08-28T03:49:22.469Z,74.40
2018-08-28T03:51:50.666Z,74.70
2018-08-28T03:54:18.950Z,74.90
2018-08-28T03:56:47.168Z,74.90
2018-08-28T03:59:15.546Z,75.00
2018-08-28T04:01:43.811Z,75.00
2018-08-28T04:04:12.058Z,75.00
2018-08-28T04:06:40.309Z,75.20
2018-08-28T04:09:09.032Z,75.20
2018-08-28T04:11:37.241Z,75.60
2018-08-28T04:14:05.470Z,75.70
2018-08-28T04:16:33.726Z,75.70
2018-08-28T04:19:02.114Z,75.90
2018-08-28T04:21:30.363Z,76.10
2018-08-28T04:23:58.590Z,76.20
2018-08-28T04:26:26.811Z,76.20
2018-08-28T04:28:55.022Z,76.20
2018-08-28T04:31:23.774Z,76.30
2018-08-28T04:33:52.050Z,76.30
2018-08-28T04:36:20.278Z,76.80
2018-08-28T04:38:48.518Z,76.30
2018-08-28T04:41:16.768Z,76.30
2018-08-28T04:43:45.027Z,76.40
2018-08-28T04:46:13.254Z,76.40
2018-08-28T04:48:41.595Z,76.70
2018-08-28T04:51:09.781Z,76.70
2018-08-28T04:53:37.984Z,76.90
2018-08-28T04:56:06.273Z,77.00
2018-08-28T04:58:34.494Z,77.00
2018-08-28T05:01:02.750Z,77.00
2018-08-28T05:03:30.999Z,76.90
2018-08-28T05:05:59.279Z,77.00
2018-08-28T05:08:27.506Z,76.80
2018-08-28T05:10:55.769Z,76.60
2018-08-28T05:13:24.094Z,76.60
2018-08-28T05:15:52.335Z,76.70
2018-08-28T05:18:20.619Z,76.70
2018-08-28T05:20:48.942Z,76.70
2018-08-28T05:23:17.235Z,76.40
2018-08-28T05:25:45.467Z,76.70
2018-08-28T05:28:14.083Z,76.70
2018-08-28T05:30:42.442Z,76.60
2018-08-28T05:33:10.682Z,76.50
2018-08-28T05:35:40.012Z,76.40
2018-08-28T05:38:08.606Z,77.10
2018-08-28T05:40:36.888Z,76.40
2018-08-28T05:43:11.697Z,76.10
2018-08-28T05:45:40.099Z,75.80
2018-08-28T05:48:08.610Z,75.70
2018-08-28T05:50:36.896Z,75.30
2018-08-28T05:53:05.323Z,74.90
2018-08-28T05:55:33.589Z,74.40
2018-08-28T05:58:02.046Z,74.20
2018-08-28T06:00:30.414Z,74.00
2018-08-28T06:02:58.734Z,73.80
2018-08-28T06:05:26.903Z,73.30
2018-08-28T06:07:55.186Z,73.00
2018-08-28T06:10:23.464Z,72.60
2018-08-28T06:12:51.725Z,71.90
2018-08-28T06:15:20.100Z,71.70
2018-08-28T06:17:48.410Z,71.60
2018-08-28T06:20:16.800Z,71.60
2018-08-28T06:22:45.367Z,71.40
2018-08-28T06:25:13.694Z,71.10
2018-08-28T06:27:41.958Z,71.40
2018-08-28T06:30:10.218Z,71.60
2018-08-28T06:32:38.442Z,71.40
2018-08-28T06:35:07.014Z,72.00
2018-08-28T06:37:35.275Z,71.40
2018-08-28T06:40:03.520Z,70.80
2018-08-28T06:42:31.759Z,70.90
2018-08-28T06:45:00.016Z,70.70
2018-08-28T06:47:28.276Z,70.40
2018-08-28T06:49:56.515Z,70.00
2018-08-28T06:52:24.744Z,69.70
2018-08-28T06:54:53.634Z,69.30
2018-08-28T06:57:21.898Z,69.40
2018-08-28T06:59:50.198Z,69.40
2018-08-28T07:02:19.065Z,69.40
2018-08-28T07:04:47.507Z,69.30
2018-08-28T07:07:16.025Z,69.00
2018-08-28T07:09:44.380Z,68.80
2018-08-28T07:12:13.746Z,68.30
2018-08-28T07:14:42.802Z,68.10
2018-08-28T07:17:11.612Z,67.70
2018-08-28T07:19:40.735Z,67.50
2018-08-28T07:22:09.785Z,67.00
2018-08-28T07:24:39.073Z,66.60
2018-08-28T07:27:07.477Z,66.10
2018-08-28T07:29:35.741Z,65.90
2018-08-28T07:32:04.391Z,65.90
2018-08-28T07:34:33.449Z,65.50
2018-08-28T07:37:01.939Z,65.30
2018-08-28T07:39:30.415Z,65.20
2018-08-28T07:41:58.984Z,64.80
2018-08-28T07:44:27.498Z,64.60
2018-08-28T07:46:56.303Z,64.90
2018-08-28T07:49:25.011Z,64.00
2018-08-28T07:51:53.438Z,64.00
2018-08-28T07:54:21.705Z,63.80
2018-08-28T07:56:50.259Z,63.60
2018-08-28T07:59:19.057Z,63.50
2018-08-28T08:01:47.349Z,63.60
2018-08-28T08:04:15.643Z,63.20
2018-08-28T08:06:43.903Z,63.00
2018-08-28T08:09:12.496Z,62.60
2018-08-28T08:11:40.770Z,62.20
2018-08-28T08:14:08.994Z,61.80
2018-08-28T08:16:37.257Z,60.90
2018-08-28T08:19:05.545Z,60.00
2018-08-28T08:21:33.777Z,59.00
2018-08-28T08:24:02.497Z,58.50
2018-08-28T08:26:30.798Z,58.30
2018-08-28T08:28:59.159Z,57.60
2018-08-28T08:31:27.490Z,55.60
2018-08-28T08:33:55.755Z,53.30
2018-08-28T08:36:24.038Z,52.80
2018-08-28T08:38:52.267Z,52.30
2018-08-28T08:41:20.575Z,52.20
2018-08-28T08:43:48.735Z,52.50
2018-08-28T08:46:16.974Z,52.60
2018-08-28T08:48:45.179Z,53.30
2018-08-28T08:51:13.529Z,53.20
2018-08-28T08:53:42.454Z,53.50
2018-08-28T08:56:10.751Z,53.50
2018-08-28T08:58:39.016Z,53.30
2018-08-28T09:01:07.299Z,53.00
2018-08-28T09:03:35.552Z,51.90
2018-08-28T09:06:04.300Z,51.80
2018-08-28T09:08:32.537Z,51.70
2018-08-28T09:11:00.831Z,51.70
2018-08-28T09:13:29.367Z,51.50
2018-08-28T09:15:57.585Z,50.60
2018-08-28T09:18:25.846Z,51.00
2018-08-28T09:20:54.066Z,51.30
2018-08-28T09:23:22.366Z,52.10
2018-08-28T09:25:50.665Z,51.80
2018-08-28T09:28:18.934Z,52.00
2018-08-28T09:30:47.754Z,52.20
2018-08-28T09:33:15.986Z,52.20
2018-08-28T09:35:44.187Z,52.20
2018-08-28T09:38:12.538Z,52.40
2018-08-28T09:40:40.737Z,52.10
2018-08-28T09:43:09.041Z,51.50
2018-08-28T09:45:38.149Z,50.80
2018-08-28T09:48:06.414Z,49.90
2018-08-28T09:50:34.680Z,49.50
2018-08-28T09:53:02.922Z,49.70
2018-08-28T09:55:31.283Z,49.70
2018-08-28T09:57:59.519Z,49.70
2018-08-28T10:00:28.954Z,48.90
2018-08-28T10:02:58.219Z,48.70
2018-08-28T10:05:26.502Z,48.80
2018-08-28T10:07:54.833Z,48.80
2018-08-28T10:10:22.949Z,48.70
2018-08-28T10:12:51.193Z,48.40
2018-08-28T10:15:19.462Z,48.50
2018-08-28T10:17:47.682Z,48.80
2018-08-28T10:20:15.902Z,48.40
2018-08-28T10:22:44.588Z,48.30
2018-08-28T10:25:12.833Z,48.10
2018-08-28T10:27:41.073Z,47.90
2018-08-28T10:30:09.336Z,47.80
2018-08-28T10:32:37.657Z,47.90
2018-08-28T10:35:05.937Z,48.00
2018-08-28T10:37:34.153Z,48.00
2018-08-28T10:40:02.423Z,47.90
2018-08-28T10:42:30.681Z,47.70
2018-08-28T10:44:58.882Z,47.10
2018-08-28T10:47:27.095Z,47.00
2018-08-28T10:49:55.375Z,46.50
2018-08-28T10:52:23.666Z,46.30
2018-08-28T10:54:51.877Z,45.10
2018-08-28T10:57:20.268Z,45.20
2018-08-28T10:59:49.308Z,45.10
2018-08-28T11:02:17.556Z,44.90
2018-08-28T11:04:45.958Z,44.80
2018-08-28T11:07:14.235Z,44.00
2018-08-28T11:09:42.642Z,44.40
2018-08-28T11:12:10.879Z,44.50
2018-08-28T11:14:39.455Z,44.30
2018-08-28T11:17:08.022Z,43.80
2018-08-28T11:19:36.310Z,44.00
2018-08-28T11:22:04.571Z,44.10
2018-08-28T11:24:32.855Z,43.70
2018-08-28T11:27:01.132Z,43.50
2018-08-28T11:29:29.370Z,43.60
2018-08-28T11:31:57.723Z,43.40
2018-08-28T11:34:26.031Z,43.40
2018-08-28T11:36:54.654Z,43.40
2018-08-28T11:39:22.910Z,43.50
2018-08-28T11:41:51.230Z,44.00
2018-08-28T11:44:19.479Z,43.90
2018-08-28T11:46:47.683Z,43.70
2018-08-28T11:49:15.933Z,43.60
2018-08-28T11:51:44.604Z,43.90
2018-08-28T11:54:12.820Z,44.00
2018-08-28T11:56:41.265Z,44.00
2018-08-28T11:59:10.244Z,43.40
2018-08-28T12:01:38.982Z,43.20
2018-08-28T12:04:08.077Z,42.90
2018-08-28T12:06:36.537Z,42.90
2018-08-28T12:09:05.985Z,42.60
2018-08-28T12:11:34.194Z,42.50
2018-08-28T12:14:02.402Z,42.70
2018-08-28T12:16:30.694Z,42.70
2018-08-28T12:18:58.914Z,42.50
2018-08-28T12:21:27.170Z,42.20
2018-08-28T12:23:55.538Z,42.20
2018-08-28T12:26:23.901Z,42.30
2018-08-28T12:28:52.164Z,42.20
2018-08-28T12:31:20.815Z,42.10
2018-08-28T12:33:49.212Z,42.50
2018-08-28T12:36:17.486Z,42.50
2018-08-28T12:38:45.746Z,42.40
2018-08-28T12:41:13.961Z,42.20
2018-08-28T12:43:42.194Z,42.00
2018-08-28T12:46:10.544Z,41.80
2018-08-28T12:48:38.718Z,41.50
2018-08-28T12:51:07.114Z,41.70
2018-08-28T12:53:35.282Z,41.80
2018-08-28T12:56:04.422Z,41.70
2018-08-28T12:58:32.723Z,41.60
2018-08-28T13:01:00.956Z,41.30
2018-08-28T13:03:29.184Z,41.10
2018-08-28T13:05:57.451Z,41.30
2018-08-28T13:08:25.672Z,41.30
2018-08-28T13:10:53.913Z,41.00
2018-08-28T13:13:22.154Z,41.00
2018-08-28T13:15:50.469Z,41.10
2018-08-28T13:18:18.768Z,40.90
2018-08-28T13:20:48.313Z,40.70
2018-08-28T13:23:16.754Z,40.50
2018-08-28T13:25:46.282Z,40.50
2018-08-28T13:28:14.524Z,40.10
2018-08-28T13:30:42.793Z,40.30
2018-08-28T13:33:11.193Z,40.30
2018-08-28T13:35:39.647Z,39.90
2018-08-28T13:38:08.030Z,39.80
2018-08-28T13:40:36.292Z,39.80
2018-08-28T13:43:04.782Z,39.80
2018-08-28T13:45:34.157Z,39.70
2018-08-28T13:48:02.562Z,39.80
2018-08-28T13:50:30.902Z,39.70
2018-08-28T13:52:59.204Z,39.60
2018-08-28T13:55:27.426Z,39.70
2018-08-28T13:57:55.664Z,39.70
2018-08-28T14:00:23.905Z,39.40
2018-08-28T14:02:52.132Z,39.30
2018-08-28T14:05:20.382Z,39.20
2018-08-28T14:07:48.697Z,39.20
2018-08-28T14:10:17.032Z,39.60
2018-08-28T14:12:45.312Z,39.60
2018-08-28T14:15:13.775Z,39.30
2018-08-28T14:17:41.998Z,39.20
2018-08-28T14:20:10.322Z,39.10
2018-08-28T14:22:38.730Z,39.20
2018-08-28T14:25:07.051Z,39.30
2018-08-28T14:27:35.282Z,39.20
2018-08-28T14:30:03.595Z,39.20
2018-08-28T14:32:31.827Z,39.20
2018-08-28T14:35:00.083Z,39.30
2018-08-28T14:37:28.308Z,39.40
2018-08-28T14:42:46.427Z,39.40
2018-08-28T14:45:14.569Z,39.30
2018-08-28T14:47:42.994Z,39.10
2018-08-28T14:50:12.394Z,39.10
2018-08-28T14:52:40.928Z,39.20
2018-08-28T14:55:09.212Z,39.20
2018-08-28T14:57:37.465Z,39.20
2018-08-28T15:00:06.611Z,39.50
2018-08-28T15:02:34.974Z,39.40
2018-08-28T15:05:03.225Z,39.10
2018-08-28T15:07:31.478Z,39.10
2018-08-28T15:09:59.894Z,39.10
2018-08-28T15:12:28.870Z,39.10
2018-08-28T15:14:57.097Z,39.20
2018-08-28T15:17:25.398Z,39.30
2018-08-28T15:19:53.674Z,39.50
2018-08-28T15:22:21.967Z,39.10
2018-08-28T15:24:50.222Z,39.00
2018-08-28T15:27:18.484Z,39.20
2018-08-28T15:29:46.811Z,39.10
2018-08-28T15:32:15.064Z,39.10
2018-08-28T15:34:43.343Z,39.20
2018-08-28T15:37:11.755Z,39.10
2018-08-28T15:39:39.978Z,39.30
2018-08-28T15:42:08.224Z,39.30
2018-08-28T15:44:36.699Z,39.40
2018-08-28T15:47:05.087Z,39.20
2018-08-28T15:49:33.344Z,39.50
2018-08-28T15:52:01.620Z,39.50
2018-08-28T15:54:29.911Z,39.80
2018-08-28T15:56:58.174Z,39.60
2018-08-28T15:59:27.033Z,39.60
2018-08-28T16:01:55.436Z,39.60
2018-08-28T16:04:23.701Z,39.70
2018-08-28T16:06:52.590Z,39.80
2018-08-28T16:09:20.987Z,39.60
2018-08-28T16:11:49.311Z,39.80
2018-08-28T16:14:17.531Z,39.90
2018-08-28T16:16:47.492Z,39.80
2018-08-28T16:19:15.906Z,40.20
2018-08-28T16:21:50.539Z,39.80
2018-08-28T16:24:18.946Z,40.00
2018-08-28T16:26:47.398Z,40.20
2018-08-28T16:29:15.739Z,40.30
2018-08-28T16:31:44.050Z,40.50
2018-08-28T16:34:12.274Z,40.30
2018-08-28T16:36:40.735Z,40.20
2018-08-28T16:39:09.891Z,40.50
2018-08-28T16:41:38.298Z,40.60
2018-08-28T16:44:07.188Z,40.70
2018-08-28T16:46:35.832Z,40.80
2018-08-28T16:49:04.069Z,40.90
2018-08-28T16:51:32.306Z,41.00
2018-08-28T16:54:00.805Z,41.10
2018-08-28T16:56:29.014Z,41.30
2018-08-28T16:58:57.374Z,41.50
2018-08-28T17:01:25.719Z,41.40
2018-08-28T17:03:53.934Z,41.40
2018-08-28T17:06:22.339Z,41.40
2018-08-28T17:08:50.600Z,41.60
2018-08-28T17:11:19.642Z,41.60
2018-08-28T17:13:47.870Z,41.60
2018-08-28T17:16:16.157Z,41.50
2018-08-28T17:18:44.513Z,41.60
2018-08-28T17:21:12.785Z,41.50
2018-08-28T17:23:41.050Z,41.60
2018-08-28T17:26:09.333Z,41.70
2018-08-28T17:28:37.593Z,41.80
2018-08-28T17:31:06.024Z,42.00
2018-08-28T17:33:34.266Z,42.00
2018-08-28T17:36:02.576Z,42.20
2018-08-28T17:38:30.823Z,42.10
2018-08-28T17:40:59.167Z,42.20
2018-08-28T17:43:27.403Z,42.30
2018-08-28T17:45:55.732Z,42.40
2018-08-28T17:48:30.727Z,42.50
2018-08-28T17:50:58.995Z,42.70
2018-08-28T17:53:27.222Z,42.70
2018-08-28T17:55:55.464Z,42.90
2018-08-28T17:58:23.714Z,43.10
2018-08-28T18:00:51.969Z,43.20
2018-08-28T18:03:20.211Z,43.40
2018-08-28T18:05:48.446Z,43.40
2018-08-28T18:08:28.459Z,43.50
2018-08-28T18:10:57.285Z,43.50
2018-08-28T18:13:25.518Z,43.70
2018-08-28T18:15:53.757Z,43.80
2018-08-28T18:18:22.030Z,44.10
2018-08-28T18:20:50.319Z,44.00
2018-08-28T18:23:18.545Z,44.20
2018-08-28T18:25:46.866Z,44.30
2018-08-28T18:28:15.082Z,44.40
2018-08-28T18:30:43.307Z,44.50
2018-08-28T18:33:11.548Z,44.70
2018-08-28T18:35:39.805Z,44.80
2018-08-28T18:38:08.211Z,45.00
2018-08-28T18:40:36.499Z,45.10
2018-08-28T18:43:04.682Z,45.20
2018-08-28T18:45:32.972Z,45.40
2018-08-28T18:48:01.202Z,45.50
2018-08-28T18:50:29.406Z,45.70
2018-08-28T18:52:57.648Z,45.70
2018-08-28T18:55:25.885Z,45.70
2018-08-28T18:57:54.169Z,45.70
2018-08-28T19:00:22.387Z,45.90
2018-08-28T19:02:50.660Z,45.90
2018-08-28T19:05:18.895Z,46.00
2018-08-28T19:07:47.147Z,46.30
2018-08-28T19:10:15.372Z,46.40
2018-08-28T19:12:43.574Z,46.30
2018-08-28T19:15:11.819Z,46.50
2018-08-28T19:17:40.097Z,46.50
2018-08-28T19:20:08.385Z,46.60
2018-08-28T19:22:36.691Z,46.90
2018-08-28T19:25:04.914Z,47.00
2018-08-28T19:27:33.144Z,47.10
2018-08-28T19:30:01.342Z,47.90
2018-08-28T19:32:29.612Z,47.40
2018-08-28T19:34:57.866Z,47.50
2018-08-28T19:37:26.634Z,47.70
2018-08-28T19:39:54.876Z,47.80
2018-08-28T19:42:23.106Z,48.00
2018-08-28T19:44:54.341Z,48.20
2018-08-28T19:47:22.602Z,48.40
2018-08-28T19:49:50.847Z,48.40
2018-08-28T19:52:19.021Z,48.40
2018-08-28T19:54:47.242Z,48.50
2018-08-28T19:57:15.538Z,48.60
2018-08-28T19:59:43.914Z,48.80
2018-08-28T20:02:12.160Z,48.90
2018-08-28T20:04:40.374Z,49.10
2018-08-28T20:07:08.643Z,49.10
2018-08-28T20:09:36.966Z,49.10
2018-08-28T20:12:05.335Z,49.20
2018-08-28T20:14:33.655Z,49.40
2018-08-28T20:17:01.801Z,49.50
2018-08-28T20:19:30.013Z,49.60
2018-08-28T20:21:58.234Z,49.90
2018-08-28T20:24:26.657Z,50.00
2018-08-28T20:26:54.946Z,50.20
2018-08-28T20:29:23.158Z,50.30
2018-08-28T20:31:51.500Z,50.20
2018-08-28T20:34:19.758Z,50.70
2018-08-28T20:36:48.043Z,50.60
2018-08-28T20:39:16.308Z,50.60
2018-08-28T20:41:44.939Z,50.80
2018-08-28T20:44:14.996Z,50.90
2018-08-28T20:46:43.246Z,51.10
2018-08-28T20:49:12.176Z,51.30
2018-08-28T20:51:40.599Z,51.50
2018-08-28T20:54:09.195Z,51.50
2018-08-28T20:56:37.650Z,51.70
2018-08-28T20:59:06.183Z,51.80
2018-08-28T21:01:34.426Z,51.90
2018-08-28T21:04:02.813Z,52.10
2018-08-28T21:06:31.089Z,52.40
2018-08-28T21:08:59.355Z,52.50
2018-08-28T21:11:27.898Z,52.50
2018-08-28T21:13:56.116Z,52.50
2018-08-28T21:16:24.375Z,52.60
2018-08-28T21:18:52.673Z,52.70
2018-08-28T21:21:20.954Z,52.70
2018-08-28T21:23:49.222Z,52.60
2018-08-28T21:26:17.969Z,53.20
2018-08-28T21:28:46.209Z,52.50
2018-08-28T21:33:53.611Z,52.40
2018-08-28T21:36:21.982Z,52.50
2018-08-28T21:38:50.303Z,52.50
2018-08-28T21:41:18.555Z,52.60
2018-08-28T21:43:46.832Z,52.70
2018-08-28T21:46:15.070Z,52.70
2018-08-28T21:48:43.367Z,52.80
2018-08-28T21:51:11.588Z,52.90
2018-08-28T21:53:40.029Z,53.00
2018-08-28T21:56:08.286Z,53.00
2018-08-28T21:58:36.529Z,52.70
2018-08-28T22:01:10.117Z,53.10
2018-08-28T22:03:38.990Z,53.30
2018-08-28T22:06:11.733Z,53.30
2018-08-28T22:08:40.114Z,53.30
2018-08-28T22:11:08.335Z,53.40
2018-08-28T22:13:36.571Z,53.50
2018-08-28T22:16:04.834Z,53.40
2018-08-28T22:18:33.434Z,53.20
2018-08-28T22:21:01.696Z,53.70
2018-08-28T22:23:29.926Z,54.00
2018-08-28T22:25:58.209Z,54.10
2018-08-28T22:28:26.441Z,54.10
2018-08-28T22:30:54.731Z,54.10
2018-08-28T22:33:22.973Z,54.30
2018-08-28T22:35:51.241Z,54.50
2018-08-28T22:38:19.450Z,54.30
2018-08-28T22:40:47.658Z,54.30
2018-08-28T22:43:23.581Z,54.20
2018-08-28T22:45:52.164Z,54.30
2018-08-28T22:48:20.430Z,54.40
2018-08-28T22:50:48.713Z,54.30
2018-08-28T22:53:16.965Z,54.50
2018-08-28T22:55:45.177Z,54.50
2018-08-28T22:58:13.440Z,54.50
2018-08-28T23:00:41.696Z,54.40
2018-08-28T23:03:09.941Z,54.50
2018-08-28T23:05:38.150Z,54.50
2018-08-28T23:08:06.942Z,54.60
2018-08-28T23:10:35.212Z,54.70
2018-08-28T23:13:03.451Z,54.90
2018-08-28T23:15:31.727Z,55.10
2018-08-28T23:17:59.987Z,55.20
2018-08-28T23:20:28.270Z,55.30
2018-08-28T23:22:56.559Z,55.50
2018-08-28T23:25:24.766Z,55.70
2018-08-28T23:27:53.008Z,55.90
2018-08-28T23:30:21.259Z,56.10
2018-08-28T23:32:49.493Z,56.20
2018-08-28T23:35:17.705Z,56.30
2018-08-28T23:37:45.926Z,56.40
2018-08-28T23:40:14.196Z,56.60
2018-08-28T23:42:42.438Z,56.70
2018-08-28T23:45:10.692Z,56.70
2018-08-28T23:47:38.932Z,56.60
2018-08-28T23:50:07.176Z,56.60
2018-08-28T23:52:35.377Z,56.70
2018-08-28T23:55:03.656Z,56.80
2018-08-28T23:57:31.933Z,56.70
